sensor_id;sensor_type;location;lat;lon;timestamp;pressure;altitude;pressure_sealevel;temperature;humidity
43707;BME280;61348;53.392;-6.248;2023-08-24T00:01:52;100842.50;;;15.68;76.37
43707;BME280;61348;53.392;-6.248;2023-08-24T00:04:19;100836.50;;;15.66;76.57
43707;BME280;61348;53.392;-6.248;2023-08-24T00:06:46;100828.88;;;15.63;76.63
43707;BME280;61348;53.392;-6.248;2023-08-24T00:09:13;100828.06;;;15.63;76.85
43707;BME280;61348;53.392;-6.248;2023-08-24T00:11:42;100826.88;;;15.64;76.97
43707;BME280;61348;53.392;-6.248;2023-08-24T00:14:09;100827.63;;;15.61;76.98
43707;BME280;61348;53.392;-6.248;2023-08-24T00:16:36;100826.47;;;15.62;77.17
43707;BME280;61348;53.392;-6.248;2023-08-24T00:19:03;100832.78;;;15.59;77.39
43707;BME280;61348;53.392;-6.248;2023-08-24T00:21:30;100835.13;;;15.57;77.62
43707;BME280;61348;53.392;-6.248;2023-08-24T00:23:57;100832.34;;;15.57;77.50
43707;BME280;61348;53.392;-6.248;2023-08-24T00:26:23;100834.34;;;15.56;77.71
43707;BME280;61348;53.392;-6.248;2023-08-24T00:28:50;100829.94;;;15.55;78.03
43707;BME280;61348;53.392;-6.248;2023-08-24T00:31:18;100823.97;;;15.57;78.06
43707;BME280;61348;53.392;-6.248;2023-08-24T00:33:45;100822.38;;;15.56;78.11
43707;BME280;61348;53.392;-6.248;2023-08-24T00:36:12;100823.13;;;15.53;78.31
43707;BME280;61348;53.392;-6.248;2023-08-24T00:38:39;100814.66;;;15.46;78.45
43707;BME280;61348;53.392;-6.248;2023-08-24T00:41:05;100802.19;;;15.40;78.70
43707;BME280;61348;53.392;-6.248;2023-08-24T00:43:32;100800.56;;;15.39;78.90
43707;BME280;61348;53.392;-6.248;2023-08-24T00:46:00;100806.13;;;15.39;79.04
43707;BME280;61348;53.392;-6.248;2023-08-24T00:48:28;100809.31;;;15.37;79.31
43707;BME280;61348;53.392;-6.248;2023-08-24T00:51:01;100808.44;;;15.33;79.42
43707;BME280;61348;53.392;-6.248;2023-08-24T00:53:28;100799.66;;;15.31;79.38
43707;BME280;61348;53.392;-6.248;2023-08-24T00:55:58;100791.69;;;15.30;79.78
43707;BME280;61348;53.392;-6.248;2023-08-24T00:58:26;100787.34;;;15.32;79.86
43707;BME280;61348;53.392;-6.248;2023-08-24T01:00:55;100794.88;;;15.32;79.78
43707;BME280;61348;53.392;-6.248;2023-08-24T01:03:24;100796.06;;;15.31;79.83
43707;BME280;61348;53.392;-6.248;2023-08-24T01:05:51;100794.47;;;15.30;80.00
43707;BME280;61348;53.392;-6.248;2023-08-24T01:08:20;100801.22;;;15.29;80.16
43707;BME280;61348;53.392;-6.248;2023-08-24T01:10:57;100794.81;;;15.28;80.42
43707;BME280;61348;53.392;-6.248;2023-08-24T01:13:46;100799.16;;;15.25;80.46
43707;BME280;61348;53.392;-6.248;2023-08-24T01:16:20;100795.56;;;15.25;80.56
43707;BME280;61348;53.392;-6.248;2023-08-24T01:18:48;100801.22;;;15.29;80.59
43707;BME280;61348;53.392;-6.248;2023-08-24T01:21:16;100789.63;;;15.27;80.69
43707;BME280;61348;53.392;-6.248;2023-08-24T01:24:17;100786.47;;;15.28;80.98
43707;BME280;61348;53.392;-6.248;2023-08-24T01:26:46;100790.78;;;15.22;80.94
43707;BME280;61348;53.392;-6.248;2023-08-24T01:29:14;100793.91;;;15.20;81.10
43707;BME280;61348;53.392;-6.248;2023-08-24T01:31:42;100795.47;;;15.18;81.48
43707;BME280;61348;53.392;-6.248;2023-08-24T01:34:09;100791.44;;;15.15;81.49
43707;BME280;61348;53.392;-6.248;2023-08-24T01:36:35;100791.06;;;15.17;81.72
43707;BME280;61348;53.392;-6.248;2023-08-24T01:41:56;100776.28;;;15.13;81.95
43707;BME280;61348;53.392;-6.248;2023-08-24T01:44:27;100782.25;;;15.11;82.07
43707;BME280;61348;53.392;-6.248;2023-08-24T01:46:57;100784.53;;;15.06;82.06
43707;BME280;61348;53.392;-6.248;2023-08-24T01:49:25;100783.31;;;15.03;82.31
43707;BME280;61348;53.392;-6.248;2023-08-24T01:51:54;100783.25;;;15.00;82.35
43707;BME280;61348;53.392;-6.248;2023-08-24T01:54:21;100772.09;;;15.00;82.54
43707;BME280;61348;53.392;-6.248;2023-08-24T01:56:47;100767.31;;;15.00;82.70
43707;BME280;61348;53.392;-6.248;2023-08-24T01:59:14;100768.91;;;15.01;82.84
43707;BME280;61348;53.392;-6.248;2023-08-24T02:01:41;100768.91;;;15.01;82.98
43707;BME280;61348;53.392;-6.248;2023-08-24T02:04:08;100772.91;;;15.00;83.02
43707;BME280;61348;53.392;-6.248;2023-08-24T02:06:34;100767.31;;;15.00;83.14
43707;BME280;61348;53.392;-6.248;2023-08-24T02:09:01;100766.44;;;14.96;83.05
43707;BME280;61348;53.392;-6.248;2023-08-24T02:11:29;100772.75;;;14.93;83.52
43707;BME280;61348;53.392;-6.248;2023-08-24T02:13:56;100766.41;;;14.93;83.59
43707;BME280;61348;53.392;-6.248;2023-08-24T02:16:22;100764.78;;;14.92;83.47
43707;BME280;61348;53.392;-6.248;2023-08-24T02:18:49;100752.47;;;14.93;83.55
43707;BME280;61348;53.392;-6.248;2023-08-24T02:21:16;100760.75;;;14.89;83.81
43707;BME280;61348;53.392;-6.248;2023-08-24T02:23:43;100761.56;;;14.90;83.97
43707;BME280;61348;53.392;-6.248;2023-08-24T02:26:10;100756.34;;;14.88;83.93
43707;BME280;61348;53.392;-6.248;2023-08-24T02:28:37;100755.94;;;14.86;83.96
43707;BME280;61348;53.392;-6.248;2023-08-24T02:31:04;100765.47;;;14.85;84.08
43707;BME280;61348;53.392;-6.248;2023-08-24T02:33:32;100761.44;;;14.83;84.46
43707;BME280;61348;53.392;-6.248;2023-08-24T02:35:59;100756.25;;;14.81;84.53
43707;BME280;61348;53.392;-6.248;2023-08-24T02:38:27;100754.94;;;14.75;84.61
43707;BME280;61348;53.392;-6.248;2023-08-24T02:41:04;100755.34;;;14.74;84.79
43707;BME280;61348;53.392;-6.248;2023-08-24T02:43:32;100758.94;;;14.74;84.92
43707;BME280;61348;53.392;-6.248;2023-08-24T02:46:04;100760.53;;;14.75;84.94
43707;BME280;61348;53.392;-6.248;2023-08-24T02:48:32;100758.94;;;14.74;84.96
43707;BME280;61348;53.392;-6.248;2023-08-24T02:51:00;100759.59;;;14.68;85.18
43707;BME280;61348;53.392;-6.248;2023-08-24T02:53:27;100766.78;;;14.69;85.17
43707;BME280;61348;53.392;-6.248;2023-08-24T02:55:54;100765.59;;;14.70;85.41
43707;BME280;61348;53.392;-6.248;2023-08-24T02:58:22;100767.59;;;14.69;85.34
43707;BME280;61348;53.392;-6.248;2023-08-24T03:00:49;100773.91;;;14.66;85.47
43707;BME280;61348;53.392;-6.248;2023-08-24T03:03:33;100762.31;;;14.64;85.57
43707;BME280;61348;53.392;-6.248;2023-08-24T03:06:03;100764.63;;;14.58;85.95
43707;BME280;61348;53.392;-6.248;2023-08-24T03:08:31;100762.22;;;14.57;85.79
43707;BME280;61348;53.392;-6.248;2023-08-24T03:10:59;100761.72;;;14.51;86.35
43707;BME280;61348;53.392;-6.248;2023-08-24T03:13:27;100756.53;;;14.50;86.22
43707;BME280;61348;53.392;-6.248;2023-08-24T03:15:54;100756.94;;;14.52;86.44
43707;BME280;61348;53.392;-6.248;2023-08-24T03:18:21;100749.00;;;14.54;86.31
43707;BME280;61348;53.392;-6.248;2023-08-24T03:20:49;100758.91;;;14.51;86.58
43707;BME280;61348;53.392;-6.248;2023-08-24T03:23:16;100749.75;;;14.51;86.64
43707;BME280;61348;53.392;-6.248;2023-08-24T03:25:43;100753.75;;;14.50;86.75
43707;BME280;61348;53.392;-6.248;2023-08-24T03:28:10;100747.34;;;14.49;86.82
43707;BME280;61348;53.392;-6.248;2023-08-24T03:30:38;100757.66;;;14.45;87.14
43707;BME280;61348;53.392;-6.248;2023-08-24T03:33:05;100759.66;;;14.48;86.99
43707;BME280;61348;53.392;-6.248;2023-08-24T03:35:33;100754.09;;;14.48;87.23
43707;BME280;61348;53.392;-6.248;2023-08-24T03:38:00;100765.63;;;14.47;87.34
43707;BME280;61348;53.392;-6.248;2023-08-24T03:40:27;100755.22;;;14.44;87.22
43707;BME280;61348;53.392;-6.248;2023-08-24T03:42:53;100759.94;;;14.40;87.29
43707;BME280;61348;53.392;-6.248;2023-08-24T03:45:21;100765.50;;;14.40;87.56
43707;BME280;61348;53.392;-6.248;2023-08-24T03:47:48;100767.81;;;14.38;87.52
43707;BME280;61348;53.392;-6.248;2023-08-24T03:50:16;100761.41;;;14.34;87.70
43707;BME280;61348;53.392;-6.248;2023-08-24T03:52:43;100755.41;;;14.32;87.82
43707;BME280;61348;53.392;-6.248;2023-08-24T03:55:10;100759.31;;;14.31;87.86
43707;BME280;61348;53.392;-6.248;2023-08-24T03:57:37;100751.28;;;14.26;87.94
43707;BME280;61348;53.392;-6.248;2023-08-24T04:00:07;100747.91;;;14.17;88.02
43707;BME280;61348;53.392;-6.248;2023-08-24T04:02:38;100749.41;;;14.11;88.36
43707;BME280;61348;53.392;-6.248;2023-08-24T04:05:05;100745.06;;;14.13;88.35
43707;BME280;61348;53.392;-6.248;2023-08-24T04:07:32;100740.59;;;14.09;88.47
43707;BME280;61348;53.392;-6.248;2023-08-24T04:10:03;100744.56;;;14.08;88.42
43707;BME280;61348;53.392;-6.248;2023-08-24T04:12:33;100746.16;;;14.09;88.11
43707;BME280;61348;53.392;-6.248;2023-08-24T04:15:00;100742.50;;;14.04;88.36
43707;BME280;61348;53.392;-6.248;2023-08-24T04:17:27;100747.19;;;14.00;88.69
43707;BME280;61348;53.392;-6.248;2023-08-24T04:19:53;100749.53;;;13.98;88.57
43707;BME280;61348;53.392;-6.248;2023-08-24T04:22:20;100751.91;;;13.96;88.81
43707;BME280;61348;53.392;-6.248;2023-08-24T04:24:47;100752.63;;;13.93;88.94
43707;BME280;61348;53.392;-6.248;2023-08-24T04:27:14;100751.03;;;13.92;88.94
43707;BME280;61348;53.392;-6.248;2023-08-24T04:29:41;100758.19;;;13.93;88.72
43707;BME280;61348;53.392;-6.248;2023-08-24T04:32:07;100757.34;;;13.89;88.64
43707;BME280;61348;53.392;-6.248;2023-08-24T04:34:34;100745.63;;;13.80;88.69
43707;BME280;61348;53.392;-6.248;2023-08-24T04:37:01;100749.13;;;13.77;88.94
43707;BME280;61348;53.392;-6.248;2023-08-24T04:39:29;100750.31;;;13.76;88.82
43707;BME280;61348;53.392;-6.248;2023-08-24T04:41:57;100745.47;;;13.73;89.10
43707;BME280;61348;53.392;-6.248;2023-08-24T04:44:24;100751.34;;;13.68;88.99
43707;BME280;61348;53.392;-6.248;2023-08-24T04:46:53;100748.09;;;13.66;89.04
43707;BME280;61348;53.392;-6.248;2023-08-24T04:49:20;100744.88;;;13.64;89.04
43707;BME280;61348;53.392;-6.248;2023-08-24T04:51:47;100749.19;;;13.62;89.11
43707;BME280;61348;53.392;-6.248;2023-08-24T04:54:14;100760.25;;;13.58;89.01
43707;BME280;61348;53.392;-6.248;2023-08-24T04:56:41;100757.75;;;13.53;89.33
43707;BME280;61348;53.392;-6.248;2023-08-24T04:59:08;100759.38;;;13.54;89.01
43707;BME280;61348;53.392;-6.248;2023-08-24T05:01:35;100757.75;;;13.53;89.29
43707;BME280;61348;53.392;-6.248;2023-08-24T05:04:02;100755.72;;;13.50;89.13
43707;BME280;61348;53.392;-6.248;2023-08-24T05:06:29;100754.09;;;13.49;88.87
43707;BME280;61348;53.392;-6.248;2023-08-24T05:08:56;100755.97;;;13.45;88.98
43707;BME280;61348;53.392;-6.248;2023-08-24T05:11:26;100750.00;;;13.43;88.66
43707;BME280;61348;53.392;-6.248;2023-08-24T05:13:55;100753.97;;;13.42;88.66
43707;BME280;61348;53.392;-6.248;2023-08-24T05:16:22;100762.66;;;13.40;88.80
43707;BME280;61348;53.392;-6.248;2023-08-24T05:18:49;100763.75;;;13.36;88.31
43707;BME280;61348;53.392;-6.248;2023-08-24T05:21:16;100761.69;;;13.33;88.36
43707;BME280;61348;53.392;-6.248;2023-08-24T05:23:43;100767.16;;;13.29;88.11
43707;BME280;61348;53.392;-6.248;2023-08-24T05:26:10;100771.84;;;13.25;88.36
43707;BME280;61348;53.392;-6.248;2023-08-24T05:28:37;100772.66;;;13.26;88.32
43707;BME280;61348;53.392;-6.248;2023-08-24T05:31:03;100775.06;;;13.27;88.50
43707;BME280;61348;53.392;-6.248;2023-08-24T05:33:30;100771.47;;;13.27;88.45
43707;BME280;61348;53.392;-6.248;2023-08-24T05:35:57;100767.09;;;13.26;88.31
43707;BME280;61348;53.392;-6.248;2023-08-24T05:38:25;100776.88;;;13.20;88.71
43707;BME280;61348;53.392;-6.248;2023-08-24T05:40:52;100770.50;;;13.19;88.85
43707;BME280;61348;53.392;-6.248;2023-08-24T05:43:19;100767.38;;;13.21;89.01
43707;BME280;61348;53.392;-6.248;2023-08-24T05:45:48;100768.09;;;13.18;89.15
43707;BME280;61348;53.392;-6.248;2023-08-24T05:48:15;100763.59;;;13.13;89.16
43707;BME280;61348;53.392;-6.248;2023-08-24T05:50:45;100783.53;;;13.15;89.23
43707;BME280;61348;53.392;-6.248;2023-08-24T05:53:12;100772.13;;;13.20;89.35
43707;BME280;61348;53.392;-6.248;2023-08-24T05:55:39;100768.25;;;13.25;89.42
43707;BME280;61348;53.392;-6.248;2023-08-24T05:58:06;100775.88;;;13.28;89.16
43707;BME280;61348;53.392;-6.248;2023-08-24T06:00:33;100779.47;;;13.28;89.18
43707;BME280;61348;53.392;-6.248;2023-08-24T06:03:00;100777.56;;;13.32;89.04
43707;BME280;61348;53.392;-6.248;2023-08-24T06:05:27;100785.56;;;13.34;89.21
43707;BME280;61348;53.392;-6.248;2023-08-24T06:07:54;100786.00;;;13.36;89.24
43707;BME280;61348;53.392;-6.248;2023-08-24T06:10:22;100789.13;;;13.34;89.05
43707;BME280;61348;53.392;-6.248;2023-08-24T06:12:49;100785.56;;;13.34;89.22
43707;BME280;61348;53.392;-6.248;2023-08-24T06:15:16;100786.28;;;13.31;89.27
43707;BME280;61348;53.392;-6.248;2023-08-24T06:17:43;100779.09;;;13.30;89.65
43707;BME280;61348;53.392;-6.248;2023-08-24T06:20:10;100783.84;;;13.29;89.50
43707;BME280;61348;53.392;-6.248;2023-08-24T06:22:37;100782.31;;;13.32;89.59
43707;BME280;61348;53.392;-6.248;2023-08-24T06:25:04;100770.84;;;13.33;89.68
43707;BME280;61348;53.392;-6.248;2023-08-24T06:27:31;100777.22;;;13.34;89.75
43707;BME280;61348;53.392;-6.248;2023-08-24T06:29:58;100782.41;;;13.35;89.56
43707;BME280;61348;53.392;-6.248;2023-08-24T06:32:25;100785.47;;;13.30;89.60
43707;BME280;61348;53.392;-6.248;2023-08-24T06:34:52;100779.47;;;13.28;89.86
43707;BME280;61348;53.392;-6.248;2023-08-24T06:37:18;100786.19;;;13.27;90.00
43707;BME280;61348;53.392;-6.248;2023-08-24T06:39:45;100779.09;;;13.30;90.32
43707;BME280;61348;53.392;-6.248;2023-08-24T06:42:12;100778.28;;;13.29;90.49
43707;BME280;61348;53.392;-6.248;2023-08-24T06:44:39;100771.56;;;13.30;90.28
43707;BME280;61348;53.392;-6.248;2023-08-24T06:47:05;100778.38;;;13.33;90.53
43707;BME280;61348;53.392;-6.248;2023-08-24T06:49:32;100776.75;;;13.32;90.75
43707;BME280;61348;53.392;-6.248;2023-08-24T06:51:59;100766.44;;;13.32;90.91
43707;BME280;61348;53.392;-6.248;2023-08-24T06:54:26;100770.47;;;13.35;90.79
43707;BME280;61348;53.392;-6.248;2023-08-24T06:56:54;100771.41;;;13.42;90.91
43707;BME280;61348;53.392;-6.248;2023-08-24T06:59:21;100769.88;;;13.45;90.88
43707;BME280;61348;53.392;-6.248;2023-08-24T07:01:48;100763.53;;;13.45;90.77
43707;BME280;61348;53.392;-6.248;2023-08-24T07:04:15;100773.13;;;13.47;90.81
43707;BME280;61348;53.392;-6.248;2023-08-24T07:06:42;100765.13;;;13.46;90.74
43707;BME280;61348;53.392;-6.248;2023-08-24T07:09:11;100767.41;;;13.40;90.62
43707;BME280;61348;53.392;-6.248;2023-08-24T07:11:38;100770.69;;;13.46;90.92
43707;BME280;61348;53.392;-6.248;2023-08-24T07:14:04;100770.78;;;13.49;90.84
43707;BME280;61348;53.392;-6.248;2023-08-24T07:16:31;100765.22;;;13.49;90.67
43707;BME280;61348;53.392;-6.248;2023-08-24T07:18:58;100768.44;;;13.51;90.36
43707;BME280;61348;53.392;-6.248;2023-08-24T07:21:25;100769.25;;;13.52;90.20
43707;BME280;61348;53.392;-6.248;2023-08-24T07:23:52;100760.63;;;13.57;90.30
43707;BME280;61348;53.392;-6.248;2023-08-24T07:26:19;100759.50;;;13.61;90.27
43707;BME280;61348;53.392;-6.248;2023-08-24T07:28:45;100759.97;;;13.63;90.16
43707;BME280;61348;53.392;-6.248;2023-08-24T07:31:12;100762.47;;;13.68;90.03
43707;BME280;61348;53.392;-6.248;2023-08-24T07:33:42;100757.78;;;13.72;89.65
43707;BME280;61348;53.392;-6.248;2023-08-24T07:36:11;100758.66;;;13.76;89.69
43707;BME280;61348;53.392;-6.248;2023-08-24T07:38:38;100753.97;;;13.80;89.27
43707;BME280;61348;53.392;-6.248;2023-08-24T07:41:05;100759.66;;;13.87;88.88
43707;BME280;61348;53.392;-6.248;2023-08-24T07:43:33;100755.78;;;13.92;88.95
43707;BME280;61348;53.392;-6.248;2023-08-24T07:46:00;100748.75;;;13.98;88.66
43707;BME280;61348;53.392;-6.248;2023-08-24T07:48:27;100764.41;;;14.06;88.60
43707;BME280;61348;53.392;-6.248;2023-08-24T07:50:54;100756.94;;;14.10;88.01
43707;BME280;61348;53.392;-6.248;2023-08-24T07:53:21;100757.03;;;14.14;87.98
43707;BME280;61348;53.392;-6.248;2023-08-24T07:55:47;100757.03;;;14.14;87.11
43707;BME280;61348;53.392;-6.248;2023-08-24T07:58:14;100751.06;;;14.15;87.20
43707;BME280;61348;53.392;-6.248;2023-08-24T08:00:41;100739.25;;;14.22;87.38
43707;BME280;61348;53.392;-6.248;2023-08-24T08:03:08;100744.16;;;14.28;87.04
43707;BME280;61348;53.392;-6.248;2023-08-24T08:05:35;100747.91;;;14.36;87.15
43707;BME280;61348;53.392;-6.248;2023-08-24T08:08:02;100744.06;;;14.44;87.03
43707;BME280;61348;53.392;-6.248;2023-08-24T08:10:28;100731.88;;;14.52;87.49
43707;BME280;61348;53.392;-6.248;2023-08-24T08:12:55;100731.25;;;14.62;88.25
43707;BME280;61348;53.392;-6.248;2023-08-24T08:15:22;100731.84;;;14.75;88.74
43707;BME280;61348;53.392;-6.248;2023-08-24T08:17:49;100733.69;;;14.90;89.52
43707;BME280;61348;53.392;-6.248;2023-08-24T08:20:17;100729.88;;;15.01;90.02
43707;BME280;61348;53.392;-6.248;2023-08-24T08:22:44;100734.19;;;15.21;90.90
43707;BME280;61348;53.392;-6.248;2023-08-24T08:25:10;100725.28;;;15.42;91.66
43707;BME280;61348;53.392;-6.248;2023-08-24T08:27:38;100722.94;;;15.74;92.52
43707;BME280;61348;53.392;-6.248;2023-08-24T08:30:06;100713.75;;;16.07;92.82
43707;BME280;61348;53.392;-6.248;2023-08-24T08:32:33;100719.66;;;16.38;91.53
43707;BME280;61348;53.392;-6.248;2023-08-24T08:35:00;100715.97;;;16.71;90.55
43707;BME280;61348;53.392;-6.248;2023-08-24T08:37:27;100720.78;;;17.32;89.24
43707;BME280;61348;53.392;-6.248;2023-08-24T08:39:54;100723.09;;;17.99;85.42
43707;BME280;61348;53.392;-6.248;2023-08-24T08:42:21;100713.97;;;18.27;81.70
43707;BME280;61348;53.392;-6.248;2023-08-24T08:44:48;100720.81;;;18.93;79.97
43707;BME280;61348;53.392;-6.248;2023-08-24T08:47:20;100727.44;;;19.73;75.57
43707;BME280;61348;53.392;-6.248;2023-08-24T08:49:48;100729.88;;;20.47;72.56
43707;BME280;61348;53.392;-6.248;2023-08-24T08:52:15;100735.00;;;21.48;69.99
43707;BME280;61348;53.392;-6.248;2023-08-24T08:54:42;100737.13;;;22.34;66.51
43707;BME280;61348;53.392;-6.248;2023-08-24T08:57:09;100737.09;;;22.88;63.81
43707;BME280;61348;53.392;-6.248;2023-08-24T08:59:37;100746.06;;;22.56;61.42
43707;BME280;61348;53.392;-6.248;2023-08-24T09:02:05;100733.91;;;22.86;60.45
43707;BME280;61348;53.392;-6.248;2023-08-24T09:04:33;100743.13;;;23.33;58.46
43707;BME280;61348;53.392;-6.248;2023-08-24T09:07:00;100738.72;;;23.94;57.14
43707;BME280;61348;53.392;-6.248;2023-08-24T09:09:34;100731.53;;;24.45;55.41
43707;BME280;61348;53.392;-6.248;2023-08-24T09:12:01;100735.56;;;24.96;53.69
43707;BME280;61348;53.392;-6.248;2023-08-24T09:14:30;100749.06;;;25.21;51.44
43707;BME280;61348;53.392;-6.248;2023-08-24T09:16:57;100738.47;;;25.09;50.74
43707;BME280;61348;53.392;-6.248;2023-08-24T09:19:30;100734.53;;;25.19;51.16
43707;BME280;61348;53.392;-6.248;2023-08-24T09:21:58;100736.16;;;25.65;49.09
43707;BME280;61348;53.392;-6.248;2023-08-24T09:24:35;100738.72;;;26.00;48.92
43707;BME280;61348;53.392;-6.248;2023-08-24T09:27:17;100735.09;;;25.59;49.07
43707;BME280;61348;53.392;-6.248;2023-08-24T09:29:52;100733.50;;;25.86;47.70
43707;BME280;61348;53.392;-6.248;2023-08-24T09:32:23;100732.03;;;25.94;46.87
43707;BME280;61348;53.392;-6.248;2023-08-24T09:34:50;100734.16;;;24.88;46.67
43707;BME280;61348;53.392;-6.248;2023-08-24T09:37:17;100728.63;;;24.13;47.74
43707;BME280;61348;53.392;-6.248;2023-08-24T09:39:44;100727.19;;;24.73;46.62
43707;BME280;61348;53.392;-6.248;2023-08-24T09:42:12;100722.13;;;25.29;44.72
43707;BME280;61348;53.392;-6.248;2023-08-24T09:44:45;100717.22;;;25.74;44.32
43707;BME280;61348;53.392;-6.248;2023-08-24T09:47:12;100726.91;;;25.89;43.50
43707;BME280;61348;53.392;-6.248;2023-08-24T09:49:39;100725.28;;;26.17;43.48
43707;BME280;61348;53.392;-6.248;2023-08-24T09:52:07;100718.03;;;26.54;41.90
43707;BME280;61348;53.392;-6.248;2023-08-24T09:54:38;100714.84;;;26.90;42.07
43707;BME280;61348;53.392;-6.248;2023-08-24T09:57:08;100723.59;;;27.30;41.37
43707;BME280;61348;53.392;-6.248;2023-08-24T09:59:39;100709.03;;;27.28;41.05
43707;BME280;61348;53.392;-6.248;2023-08-24T10:02:14;100710.19;;;26.33;41.29
43707;BME280;61348;53.392;-6.248;2023-08-24T10:04:42;100706.59;;;25.05;42.71
43707;BME280;61348;53.392;-6.248;2023-08-24T10:07:11;100706.25;;;24.38;43.81
43707;BME280;61348;53.392;-6.248;2023-08-24T10:09:47;100707.13;;;23.60;44.33
43707;BME280;61348;53.392;-6.248;2023-08-24T10:12:18;100714.75;;;22.97;45.49
43707;BME280;61348;53.392;-6.248;2023-08-24T10:15:00;100708.34;;;23.39;45.13
43707;BME280;61348;53.392;-6.248;2023-08-24T10:17:32;100707.19;;;24.32;44.38
43707;BME280;61348;53.392;-6.248;2023-08-24T10:20:00;100703.72;;;25.21;42.36
43707;BME280;61348;53.392;-6.248;2023-08-24T10:22:36;100715.97;;;25.63;41.99
43707;BME280;61348;53.392;-6.248;2023-08-24T10:25:03;100706.50;;;25.37;41.81
43707;BME280;61348;53.392;-6.248;2023-08-24T10:27:30;100699.97;;;24.95;42.08
43707;BME280;61348;53.392;-6.248;2023-08-24T10:29:58;100703.94;;;24.98;41.53
43707;BME280;61348;53.392;-6.248;2023-08-24T10:32:28;100712.78;;;24.35;42.42
43707;BME280;61348;53.392;-6.248;2023-08-24T10:34:56;100709.13;;;24.18;42.89
43707;BME280;61348;53.392;-6.248;2023-08-24T10:37:27;100704.66;;;24.69;41.95
43707;BME280;61348;53.392;-6.248;2023-08-24T10:39:54;100709.25;;;25.12;41.01
43707;BME280;61348;53.392;-6.248;2023-08-24T10:42:21;100716.56;;;24.45;41.66
43707;BME280;61348;53.392;-6.248;2023-08-24T10:44:48;100696.22;;;23.78;42.58
43707;BME280;61348;53.392;-6.248;2023-08-24T10:55:00;100680.47;;;23.97;42.01
43707;BME280;61348;53.392;-6.248;2023-08-24T10:57:35;100678.91;;;23.96;42.65
43707;BME280;61348;53.392;-6.248;2023-08-24T11:00:06;100683.13;;;23.88;43.14
43707;BME280;61348;53.392;-6.248;2023-08-24T11:07:59;100668.81;;;23.16;45.60
43707;BME280;61348;53.392;-6.248;2023-08-24T11:10:44;100673.16;;;22.78;45.81
43707;BME280;61348;53.392;-6.248;2023-08-24T11:13:17;100661.31;;;22.13;46.71
43707;BME280;61348;53.392;-6.248;2023-08-24T11:15:47;100665.66;;;21.91;47.17
43707;BME280;61348;53.392;-6.248;2023-08-24T11:18:28;100655.91;;;21.65;47.47
43707;BME280;61348;53.392;-6.248;2023-08-24T11:21:06;100656.69;;;21.36;47.78
43707;BME280;61348;53.392;-6.248;2023-08-24T11:23:33;100657.91;;;21.35;47.65
43707;BME280;61348;53.392;-6.248;2023-08-24T11:26:01;100666.44;;;21.28;48.00
43707;BME280;61348;53.392;-6.248;2023-08-24T11:28:30;100653.78;;;21.05;48.69
43707;BME280;61348;53.392;-6.248;2023-08-24T11:30:57;100654.88;;;20.78;48.97
43707;BME280;61348;53.392;-6.248;2023-08-24T11:33:32;100652.72;;;20.48;49.37
43707;BME280;61348;53.392;-6.248;2023-08-24T11:36:02;100651.56;;;20.42;49.49
43707;BME280;61348;53.392;-6.248;2023-08-24T11:38:40;100642.69;;;20.47;49.59
43707;BME280;61348;53.392;-6.248;2023-08-24T11:41:15;100645.03;;;20.55;49.79
43707;BME280;61348;53.392;-6.248;2023-08-24T11:43:46;100638.22;;;20.53;50.10
43707;BME280;61348;53.392;-6.248;2023-08-24T11:46:18;100647.44;;;20.57;49.77
43707;BME280;61348;53.392;-6.248;2023-08-24T11:48:45;100653.47;;;20.52;49.08
43707;BME280;61348;53.392;-6.248;2023-08-24T11:51:13;100647.03;;;20.55;48.80
43707;BME280;61348;53.392;-6.248;2023-08-24T11:53:45;100648.25;;;20.54;48.33
43707;BME280;61348;53.392;-6.248;2023-08-24T11:56:13;100637.47;;;20.49;48.55
43707;BME280;61348;53.392;-6.248;2023-08-24T11:58:41;100642.56;;;20.61;48.76
43707;BME280;61348;53.392;-6.248;2023-08-24T12:01:10;100644.56;;;20.64;48.50
43707;BME280;61348;53.392;-6.248;2023-08-24T12:03:39;100652.75;;;20.44;49.04
43707;BME280;61348;53.392;-6.248;2023-08-24T12:06:16;100638.88;;;20.20;49.51
43707;BME280;61348;53.392;-6.248;2023-08-24T12:08:46;100639.78;;;20.06;49.26
43707;BME280;61348;53.392;-6.248;2023-08-24T12:11:18;100635.03;;;19.92;49.19
43707;BME280;61348;53.392;-6.248;2023-08-24T12:13:50;100635.50;;;19.80;50.00
43707;BME280;61348;53.392;-6.248;2023-08-24T12:16:18;100644.41;;;19.68;50.00
43707;BME280;61348;53.392;-6.248;2023-08-24T12:18:51;100639.66;;;19.62;49.99
43707;BME280;61348;53.392;-6.248;2023-08-24T12:21:19;100626.31;;;19.73;50.38
43707;BME280;61348;53.392;-6.248;2023-08-24T12:24:00;100627.28;;;20.11;49.62
43707;BME280;61348;53.392;-6.248;2023-08-24T12:26:28;100617.38;;;20.47;48.96
43707;BME280;61348;53.392;-6.248;2023-08-24T12:29:03;100621.34;;;20.53;48.91
43707;BME280;61348;53.392;-6.248;2023-08-24T12:31:35;100630.25;;;20.44;48.95
43707;BME280;61348;53.392;-6.248;2023-08-24T12:34:06;100628.78;;;20.29;49.23
43707;BME280;61348;53.392;-6.248;2023-08-24T12:36:34;100625.66;;;20.10;49.76
43707;BME280;61348;53.392;-6.248;2023-08-24T12:39:04;100619.66;;;20.08;50.18
43707;BME280;61348;53.392;-6.248;2023-08-24T12:41:32;100627.72;;;20.09;49.74
43707;BME280;61348;53.392;-6.248;2023-08-24T12:43:59;100617.75;;;19.97;49.38
43707;BME280;61348;53.392;-6.248;2023-08-24T12:46:26;100621.75;;;19.96;49.48
43707;BME280;61348;53.392;-6.248;2023-08-24T12:48:56;100624.63;;;19.89;49.73
43707;BME280;61348;53.392;-6.248;2023-08-24T12:51:24;100622.97;;;19.95;49.18
43707;BME280;61348;53.392;-6.248;2023-08-24T12:53:51;100624.91;;;20.09;49.30
43707;BME280;61348;53.392;-6.248;2023-08-24T12:56:18;100615.81;;;20.42;48.90
43707;BME280;61348;53.392;-6.248;2023-08-24T12:58:45;100616.69;;;20.36;48.86
43707;BME280;61348;53.392;-6.248;2023-08-24T13:01:11;100622.78;;;20.24;48.86
43707;BME280;61348;53.392;-6.248;2023-08-24T13:03:39;100616.81;;;20.15;49.18